Time;durP1;ratioP1;P1;durP2;ratioP2;P2;SDS_P1;SDS_P2;PMS_P1;PMS_P2;Temp;Humidity;BMP_temperature;BMP_pressure;BME280_temperature;BME280_humidity;BME280_pressure;Samples;Min_cycle;Max_cycle;Signal;HPM_P1;HPM_P2
2023/01/31 00:01:38;;;;;;;9.00;2.37;;;7.30;99.90;;;;;;4996762;28;20191;-68
2023/01/31 00:04:07;;;;;;;6.10;2.10;;;7.30;99.90;;;;;;5011924;28;20183;-66
2023/01/31 00:06:37;;;;;;;11.37;1.97;;;7.40;99.90;;;;;;5011602;28;20367;-66
2023/01/31 00:09:05;;;;;;;7.07;2.00;;;7.40;99.90;;;;;;5011619;28;20202;-64
2023/01/31 00:11:33;;;;;;;6.63;1.80;;;7.40;99.90;;;;;;5011293;28;20202;-65
2023/01/31 00:14:00;;;;;;;6.03;1.43;;;7.40;99.90;;;;;;5012486;28;20216;-65
2023/01/31 00:16:29;;;;;;;5.33;1.63;;;7.40;99.90;;;;;;5011640;28;20187;-67
2023/01/31 00:18:54;;;;;;;8.97;1.73;;;7.40;99.90;;;;;;5000629;28;20191;-67
2023/01/31 00:21:23;;;;;;;7.90;1.80;;;7.50;99.90;;;;;;5020369;28;20221;-64
2023/01/31 00:23:52;;;;;;;9.67;2.37;;;7.40;99.90;;;;;;5013242;28;20190;-64
2023/01/31 00:26:24;;;;;;;12.50;2.37;;;7.40;99.90;;;;;;5010685;28;20191;-66
2023/01/31 00:28:51;;;;;;;10.87;2.10;;;7.40;99.90;;;;;;5008140;28;20206;-66
2023/01/31 00:31:18;;;;;;;7.17;1.70;;;7.40;99.90;;;;;;5004945;28;20273;-66
2023/01/31 00:33:49;;;;;;;9.07;1.93;;;7.40;99.90;;;;;;5010211;28;20318;-66
2023/01/31 00:36:19;;;;;;;5.07;1.67;;;7.40;99.90;;;;;;5012453;28;20210;-66
2023/01/31 00:38:48;;;;;;;7.33;2.23;;;7.40;99.90;;;;;;5012006;28;20449;-67
2023/01/31 00:41:16;;;;;;;10.53;1.87;;;7.40;99.90;;;;;;5007299;28;20247;-66
2023/01/31 00:43:42;;;;;;;6.70;2.07;;;7.30;99.90;;;;;;5027917;28;20175;-66
2023/01/31 00:46:07;;;;;;;5.03;1.50;;;7.40;99.90;;;;;;5014213;28;20220;-63
2023/01/31 00:48:33;;;;;;;6.00;1.53;;;7.30;99.90;;;;;;5015112;28;20268;-67
2023/01/31 00:51:04;;;;;;;5.67;1.70;;;7.30;99.90;;;;;;5010560;28;20242;-64
2023/01/31 00:53:34;;;;;;;7.17;1.40;;;7.30;99.90;;;;;;5015000;28;20205;-64
2023/01/31 00:56:11;;;;;;;7.37;1.40;;;7.30;99.90;;;;;;5015521;28;20178;-67
2023/01/31 00:58:40;;;;;;;9.23;1.80;;;7.30;99.90;;;;;;5018657;28;20178;-66
2023/01/31 01:01:15;;;;;;;6.47;2.03;;;7.30;99.90;;;;;;5003782;28;20245;-66
2023/01/31 01:03:44;;;;;;;8.03;1.87;;;7.30;99.90;;;;;;5010903;28;20182;-63
2023/01/31 01:06:13;;;;;;;7.67;1.40;;;7.30;99.90;;;;;;5013509;28;20210;-65
2023/01/31 01:08:40;;;;;;;7.27;1.70;;;7.30;99.90;;;;;;5008548;28;20206;-66
2023/01/31 01:11:11;;;;;;;6.70;1.47;;;7.20;99.90;;;;;;5004768;28;20182;-65
2023/01/31 01:13:39;;;;;;;4.67;1.47;;;7.20;99.90;;;;;;5020631;28;20238;-66
2023/01/31 01:16:21;;;;;;;5.07;1.80;;;7.20;99.90;;;;;;5002186;28;20195;-66
2023/01/31 01:18:48;;;;;;;7.07;1.87;;;7.20;99.90;;;;;;5013571;28;20218;-65
2023/01/31 01:21:19;;;;;;;4.43;1.40;;;7.20;99.90;;;;;;5009465;28;20180;-66
2023/01/31 01:23:46;;;;;;;6.27;1.50;;;7.20;99.90;;;;;;5010303;28;20202;-66
2023/01/31 01:26:21;;;;;;;7.03;1.80;;;7.30;99.90;;;;;;5009607;28;20210;-65
2023/01/31 01:28:47;;;;;;;6.70;1.70;;;7.20;99.90;;;;;;5012214;28;20201;-66
2023/01/31 01:31:28;;;;;;;5.87;1.63;;;7.10;99.90;;;;;;5010199;28;20195;-65
2023/01/31 01:33:58;;;;;;;7.67;1.63;;;7.10;99.90;;;;;;5002276;28;20183;-66
2023/01/31 01:36:24;;;;;;;7.60;1.60;;;7.10;99.90;;;;;;5001708;28;20190;-66
2023/01/31 01:38:53;;;;;;;7.33;1.77;;;7.00;99.90;;;;;;5009986;28;20202;-65
2023/01/31 01:41:20;;;;;;;5.13;1.63;;;7.00;99.90;;;;;;5003864;28;20198;-64
2023/01/31 01:43:55;;;;;;;6.17;1.50;;;7.00;99.90;;;;;;5013023;28;20246;-66
2023/01/31 01:46:35;;;;;;;7.37;1.43;;;7.00;99.90;;;;;;5003722;28;20294;-66
2023/01/31 01:49:13;;;;;;;6.40;1.77;;;7.00;99.90;;;;;;5007628;28;20202;-66
2023/01/31 01:51:40;;;;;;;6.57;1.60;;;7.00;99.90;;;;;;5008752;28;20258;-66
2023/01/31 01:54:16;;;;;;;5.20;1.70;;;6.90;99.90;;;;;;5002801;28;20455;-65
2023/01/31 01:56:48;;;;;;;6.70;2.03;;;6.90;99.90;;;;;;5011547;28;20178;-68
2023/01/31 01:59:19;;;;;;;10.70;2.03;;;6.90;99.90;;;;;;5013886;28;20212;-65
2023/01/31 02:01:46;;;;;;;8.23;2.20;;;6.90;99.90;;;;;;5013646;28;20171;-67
2023/01/31 02:04:19;;;;;;;5.07;1.90;;;6.90;99.90;;;;;;5010728;28;20171;-65
2023/01/31 02:06:48;;;;;;;5.83;1.67;;;6.90;99.90;;;;;;5009275;28;21900;-66
2023/01/31 02:09:26;;;;;;;5.07;1.70;;;6.80;99.90;;;;;;5010292;28;20195;-68
2023/01/31 02:11:52;;;;;;;6.67;2.10;;;6.80;99.90;;;;;;5009631;28;20174;-65
2023/01/31 02:14:20;;;;;;;7.57;1.97;;;6.80;99.90;;;;;;5015128;28;20190;-65
2023/01/31 02:16:46;;;;;;;6.53;1.70;;;6.80;99.90;;;;;;5013794;28;20273;-67
2023/01/31 02:19:32;;;;;;;6.20;1.80;;;6.80;99.90;;;;;;5012408;28;20242;-66
2023/01/31 02:22:06;;;;;;;5.13;2.03;;;6.70;99.90;;;;;;5004940;28;20182;-66
2023/01/31 02:24:53;;;;;;;5.93;1.90;;;6.70;99.90;;;;;;5030521;28;20182;-66
2023/01/31 02:27:44;;;;;;;7.23;2.00;;;6.70;99.90;;;;;;5023865;28;20183;-66
2023/01/31 02:30:31;;;;;;;9.67;2.00;;;6.70;99.90;;;;;;5016588;28;20174;-66
2023/01/31 02:33:15;;;;;;;8.43;1.67;;;6.70;99.90;;;;;;5013650;28;20183;-66
2023/01/31 02:36:01;;;;;;;5.67;1.70;;;6.70;99.90;;;;;;5013989;28;20356;-66
2023/01/31 02:38:35;;;;;;;4.70;1.60;;;6.70;99.90;;;;;;5028458;28;20187;-66
2023/01/31 02:41:46;;;;;;;6.13;2.17;;;6.70;99.90;;;;;;5003654;28;20174;-66
2023/01/31 02:47:16;;;;;;;6.43;1.67;;;6.70;99.90;;;;;;5000977;28;20244;-67
2023/01/31 02:49:55;;;;;;;3.83;1.70;;;6.70;99.90;;;;;;5032702;28;20207;-65
2023/01/31 02:52:26;;;;;;;6.70;1.87;;;6.60;99.90;;;;;;5015829;28;20181;-65
2023/01/31 02:57:42;;;;;;;4.57;1.70;;;6.60;99.90;;;;;;5004484;28;20218;-65
2023/01/31 03:00:09;;;;;;;7.43;1.93;;;6.60;99.90;;;;;;5011022;28;20181;-66
2023/01/31 03:02:38;;;;;;;7.50;1.83;;;6.60;99.90;;;;;;5010730;28;20189;-65
2023/01/31 03:05:04;;;;;;;5.27;1.50;;;6.60;99.90;;;;;;5012459;28;20195;-66
2023/01/31 03:07:41;;;;;;;5.43;1.40;;;6.50;99.90;;;;;;5021232;28;20353;-66
2023/01/31 03:10:12;;;;;;;4.37;1.13;;;6.60;99.90;;;;;;5005848;28;20191;-65
2023/01/31 03:13:19;;;;;;;5.50;1.33;;;6.50;99.90;;;;;;4999028;28;20451;-65
2023/01/31 03:18:57;;;;;;;6.53;1.80;;;6.50;99.90;;;;;;5008126;28;20282;-65
2023/01/31 03:21:37;;;;;;;6.50;2.00;;;6.40;99.90;;;;;;5022414;28;20297;-65
2023/01/31 03:24:07;;;;;;;2.67;1.13;;;6.40;99.90;;;;;;5017986;28;20175;-65
2023/01/31 03:26:34;;;;;;;5.70;1.70;;;6.40;99.90;;;;;;5008891;28;20435;-65
2023/01/31 03:29:02;;;;;;;4.40;1.60;;;6.40;99.90;;;;;;5012060;28;20246;-65
2023/01/31 03:31:52;;;;;;;3.93;1.50;;;6.30;99.90;;;;;;5012099;28;20185;-65
2023/01/31 03:34:18;;;;;;;7.73;1.90;;;6.30;99.90;;;;;;5004040;28;20286;-65
2023/01/31 03:37:07;;;;;;;4.70;1.47;;;6.30;99.90;;;;;;5015438;28;20204;-65
2023/01/31 03:39:51;;;;;;;4.50;1.20;;;6.20;99.90;;;;;;5002419;28;20266;-65
2023/01/31 03:42:33;;;;;;;6.57;1.60;;;6.20;99.90;;;;;;5025831;28;20509;-65
2023/01/31 03:45:17;;;;;;;6.87;1.60;;;6.20;99.90;;;;;;5017100;28;20199;-65
2023/01/31 03:47:45;;;;;;;5.30;1.93;;;6.20;99.90;;;;;;5007656;28;20186;-65
2023/01/31 03:50:18;;;;;;;8.47;1.80;;;6.20;99.90;;;;;;5012398;28;20178;-66
2023/01/31 03:52:57;;;;;;;4.83;1.50;;;6.10;99.90;;;;;;5022725;28;20198;-65
2023/01/31 03:55:30;;;;;;;5.07;1.40;;;6.10;99.90;;;;;;5012831;28;20175;-65
2023/01/31 03:58:01;;;;;;;5.37;1.47;;;6.10;99.90;;;;;;5023048;28;20186;-65
2023/01/31 04:00:27;;;;;;;9.07;2.03;;;6.10;99.90;;;;;;5012272;28;20199;-65
2023/01/31 04:03:09;;;;;;;5.43;1.50;;;6.10;99.90;;;;;;5013997;28;20239;-65
2023/01/31 04:05:37;;;;;;;7.07;2.00;;;6.10;99.90;;;;;;5008823;28;20179;-65
2023/01/31 04:08:03;;;;;;;5.60;1.87;;;6.10;99.90;;;;;;5002876;28;20199;-66
2023/01/31 04:10:29;;;;;;;8.83;1.67;;;6.10;99.90;;;;;;5010580;28;20181;-65
2023/01/31 04:12:54;;;;;;;6.30;1.50;;;6.00;99.90;;;;;;5004465;28;20175;-65
2023/01/31 04:15:20;;;;;;;6.97;1.70;;;6.10;99.90;;;;;;5009732;28;20195;-66
2023/01/31 04:17:48;;;;;;;9.27;1.90;;;6.00;99.90;;;;;;5010622;28;20340;-65
2023/01/31 04:20:14;;;;;;;6.93;1.70;;;6.00;99.90;;;;;;5013617;28;20233;-66
2023/01/31 04:22:42;;;;;;;6.63;2.07;;;6.00;99.90;;;;;;5012696;28;20187;-65
2023/01/31 04:25:10;;;;;;;6.27;1.90;;;5.90;99.90;;;;;;5009353;28;20218;-64
2023/01/31 04:27:36;;;;;;;7.70;2.33;;;5.90;99.90;;;;;;5005390;28;20179;-65
2023/01/31 04:30:07;;;;;;;6.53;2.23;;;5.90;99.90;;;;;;5012132;28;20189;-65
2023/01/31 04:32:35;;;;;;;7.70;2.23;;;5.90;99.90;;;;;;5011662;28;20242;-65
2023/01/31 04:35:01;;;;;;;8.37;2.30;;;5.90;99.90;;;;;;5014405;28;20178;-65
2023/01/31 04:37:28;;;;;;;6.80;2.13;;;5.80;99.90;;;;;;5012956;28;20179;-65
2023/01/31 04:39:57;;;;;;;9.17;2.30;;;5.80;99.90;;;;;;5023675;28;20179;-65
2023/01/31 04:42:24;;;;;;;3.90;1.60;;;5.80;99.90;;;;;;5020407;28;20232;-65
2023/01/31 04:44:50;;;;;;;7.83;1.90;;;5.80;99.90;;;;;;5015123;28;20214;-64
2023/01/31 04:47:16;;;;;;;6.37;2.10;;;5.80;99.90;;;;;;5013587;28;20238;-65
2023/01/31 04:49:42;;;;;;;6.10;2.07;;;5.80;99.90;;;;;;5015102;28;20214;-65
2023/01/31 04:52:10;;;;;;;6.77;2.30;;;5.70;99.90;;;;;;5015299;28;20170;-65
2023/01/31 04:54:36;;;;;;;6.53;2.17;;;5.70;99.90;;;;;;5014094;28;20175;-65
2023/01/31 04:57:02;;;;;;;5.60;2.40;;;5.70;99.90;;;;;;5013896;28;20215;-65
2023/01/31 04:59:28;;;;;;;9.07;3.03;;;5.70;99.90;;;;;;5012612;28;20179;-65
2023/01/31 05:01:56;;;;;;;6.90;2.53;;;5.70;99.90;;;;;;5009982;28;20218;-65
2023/01/31 05:04:22;;;;;;;9.77;2.83;;;5.70;99.90;;;;;;5002805;28;20241;-65
2023/01/31 05:06:48;;;;;;;6.40;2.70;;;5.70;99.90;;;;;;5006602;28;20183;-65
2023/01/31 05:09:16;;;;;;;9.77;3.33;;;5.70;99.90;;;;;;5012748;28;20221;-65
2023/01/31 05:11:45;;;;;;;6.47;3.07;;;5.70;99.90;;;;;;5011113;28;20202;-65
2023/01/31 05:14:13;;;;;;;11.23;3.30;;;5.70;99.90;;;;;;5014164;28;20346;-65
2023/01/31 05:16:39;;;;;;;7.93;3.00;;;5.70;99.90;;;;;;5013384;28;20174;-65
2023/01/31 05:19:05;;;;;;;10.03;2.90;;;5.70;99.90;;;;;;5029181;28;20209;-65
2023/01/31 05:21:53;;;;;;;7.50;3.20;;;5.70;99.90;;;;;;5013364;28;20183;-65
2023/01/31 05:24:16;;;;;;;6.70;2.80;;;5.70;99.90;;;;;;5001880;28;20191;-65
2023/01/31 05:26:42;;;;;;;5.43;2.83;;;5.70;99.90;;;;;;5013221;28;20194;-65
2023/01/31 05:29:07;;;;;;;6.13;2.70;;;5.70;99.90;;;;;;4996121;28;20203;-65
2023/01/31 05:31:33;;;;;;;6.23;2.70;;;5.70;99.90;;;;;;5010825;28;20210;-65
2023/01/31 05:33:58;;;;;;;7.57;2.80;;;5.70;99.90;;;;;;5007413;28;20207;-65
2023/01/31 05:36:24;;;;;;;7.93;3.37;;;5.70;99.90;;;;;;5005479;28;20189;-65
2023/01/31 05:38:50;;;;;;;10.27;3.13;;;5.70;99.90;;;;;;5006252;28;20542;-65
2023/01/31 05:41:15;;;;;;;8.13;3.27;;;5.70;99.90;;;;;;5009497;28;20206;-65
2023/01/31 05:43:41;;;;;;;6.77;2.90;;;5.70;99.90;;;;;;5009951;28;20193;-65
2023/01/31 05:46:06;;;;;;;6.43;3.00;;;5.70;99.90;;;;;;5007125;28;20203;-65
2023/01/31 05:48:32;;;;;;;8.03;3.07;;;5.70;99.90;;;;;;5019589;28;20206;-66
2023/01/31 05:50:57;;;;;;;7.97;3.60;;;5.70;99.90;;;;;;4997843;28;20179;-77
2023/01/31 05:53:26;;;;;;;8.93;3.57;;;5.70;99.90;;;;;;5009798;28;20222;-75
2023/01/31 05:55:52;;;;;;;11.77;3.87;;;5.70;99.90;;;;;;5008486;28;20326;-76
2023/01/31 05:58:17;;;;;;;7.13;3.57;;;5.80;99.90;;;;;;5010666;28;20183;-77
2023/01/31 06:00:45;;;;;;;7.43;2.83;;;5.80;99.90;;;;;;5009765;28;20190;-67
2023/01/31 06:03:11;;;;;;;6.67;2.93;;;5.90;99.90;;;;;;4996071;28;20204;-65
2023/01/31 06:05:39;;;;;;;5.97;3.40;;;5.90;99.90;;;;;;5010095;28;20178;-65
2023/01/31 06:08:05;;;;;;;5.80;3.27;;;6.00;99.90;;;;;;5007250;28;20214;-65
2023/01/31 06:10:31;;;;;;;7.97;3.60;;;6.00;99.90;;;;;;5010139;28;20191;-65
2023/01/31 06:12:59;;;;;;;6.30;3.10;;;6.00;99.90;;;;;;5007550;28;20193;-64
2023/01/31 06:15:27;;;;;;;8.67;3.50;;;6.00;99.90;;;;;;5021847;28;20261;-65
2023/01/31 06:17:55;;;;;;;8.70;3.20;;;6.00;99.90;;;;;;5007246;28;20179;-65
2023/01/31 06:20:23;;;;;;;8.53;3.13;;;6.00;99.90;;;;;;5004456;28;20214;-65
2023/01/31 06:22:51;;;;;;;8.27;3.50;;;6.00;99.90;;;;;;5007002;28;20261;-67
2023/01/31 06:25:19;;;;;;;8.07;3.20;;;6.00;99.90;;;;;;5011329;28;20217;-65
2023/01/31 06:27:45;;;;;;;9.83;3.60;;;6.00;99.90;;;;;;5017939;28;20175;-66
2023/01/31 06:30:11;;;;;;;8.73;3.37;;;6.10;99.90;;;;;;5004104;28;20175;-65
2023/01/31 06:32:41;;;;;;;9.27;3.20;;;6.00;99.90;;;;;;5005238;28;20203;-65
2023/01/31 06:35:09;;;;;;;8.17;3.27;;;6.00;99.90;;;;;;5006516;28;20179;-64
2023/01/31 06:37:40;;;;;;;6.50;3.10;;;6.00;99.90;;;;;;4997730;28;20233;-65
2023/01/31 06:40:06;;;;;;;8.00;2.97;;;6.00;99.90;;;;;;5009966;28;20198;-65
2023/01/31 06:42:33;;;;;;;6.97;3.20;;;6.00;99.90;;;;;;5012317;28;20179;-65
2023/01/31 06:45:01;;;;;;;7.27;3.20;;;6.00;99.90;;;;;;5013245;28;20167;-65
2023/01/31 06:47:29;;;;;;;8.07;3.33;;;6.00;99.90;;;;;;5007139;28;20202;-65
2023/01/31 06:49:58;;;;;;;5.90;2.73;;;6.00;99.90;;;;;;5012804;28;20202;-65
2023/01/31 06:52:26;;;;;;;7.17;3.20;;;5.90;99.90;;;;;;5012794;28;20237;-65
2023/01/31 06:54:51;;;;;;;6.93;2.83;;;6.00;99.90;;;;;;5024763;28;20278;-65
2023/01/31 06:57:17;;;;;;;7.53;3.10;;;6.00;99.90;;;;;;5011898;28;20243;-66
2023/01/31 06:59:44;;;;;;;5.43;2.90;;;6.00;99.90;;;;;;4993799;28;20222;-65
2023/01/31 07:02:12;;;;;;;7.27;3.10;;;6.00;99.90;;;;;;5013209;28;20209;-65
2023/01/31 07:04:38;;;;;;;7.90;3.20;;;6.00;99.90;;;;;;5004807;28;20183;-65
2023/01/31 07:07:06;;;;;;;10.73;3.60;;;6.00;99.90;;;;;;5009197;28;20186;-67
2023/01/31 07:09:31;;;;;;;7.30;3.07;;;6.10;99.90;;;;;;5014161;28;20365;-65
2023/01/31 07:12:00;;;;;;;9.30;3.30;;;6.20;99.90;;;;;;5010263;28;20217;-65
2023/01/31 07:14:26;;;;;;;5.80;3.00;;;6.10;99.90;;;;;;5023009;28;20465;-64
2023/01/31 07:16:51;;;;;;;7.30;3.13;;;6.10;99.90;;;;;;5014770;28;20289;-65
2023/01/31 07:19:22;;;;;;;5.83;2.63;;;6.20;99.90;;;;;;5003729;28;20245;-65
2023/01/31 07:21:49;;;;;;;6.90;2.70;;;6.20;99.90;;;;;;5007332;28;20252;-65
2023/01/31 07:24:18;;;;;;;5.40;2.90;;;6.20;99.90;;;;;;5011520;28;20218;-65
2023/01/31 07:26:43;;;;;;;8.23;3.20;;;6.30;99.90;;;;;;5010102;28;20191;-64
2023/01/31 07:29:10;;;;;;;7.30;2.97;;;6.20;99.90;;;;;;5010345;28;20210;-65
2023/01/31 07:31:39;;;;;;;8.33;3.23;;;6.30;99.90;;;;;;5012866;28;20210;-65
2023/01/31 07:34:07;;;;;;;5.67;2.73;;;6.30;99.90;;;;;;5007892;28;20194;-65
2023/01/31 07:36:32;;;;;;;7.60;3.00;;;6.30;99.90;;;;;;5018775;28;20209;-64
2023/01/31 07:39:00;;;;;;;7.57;2.63;;;6.30;99.90;;;;;;5009674;28;20202;-65
2023/01/31 07:41:26;;;;;;;6.90;2.47;;;6.40;99.90;;;;;;5011300;28;20202;-65
2023/01/31 07:43:51;;;;;;;5.73;2.37;;;6.40;99.90;;;;;;5017228;28;20186;-65
2023/01/31 07:46:18;;;;;;;6.27;2.40;;;6.40;99.90;;;;;;5016650;28;20317;-65
2023/01/31 07:48:43;;;;;;;6.27;2.70;;;6.40;99.90;;;;;;5007577;28;20207;-65
2023/01/31 07:51:12;;;;;;;7.57;2.70;;;6.50;99.90;;;;;;5010202;28;20261;-65
2023/01/31 07:53:40;;;;;;;8.23;2.70;;;6.50;99.90;;;;;;5003143;28;20230;-65
2023/01/31 07:56:24;;;;;;;8.93;2.57;;;6.50;99.90;;;;;;5006141;28;20194;-65
2023/01/31 07:58:50;;;;;;;8.20;2.60;;;6.60;99.90;;;;;;5022059;28;20179;-65
2023/01/31 08:04:01;;;;;;;4.10;2.20;;;6.70;99.90;;;;;;5004226;28;20190;-65
2023/01/31 08:06:32;;;;;;;5.60;2.53;;;6.70;99.90;;;;;;5021291;28;20178;-65
2023/01/31 08:08:57;;;;;;;8.10;2.60;;;6.70;99.90;;;;;;5002954;28;20269;-65
2023/01/31 08:11:26;;;;;;;8.53;2.83;;;6.80;99.90;;;;;;5011511;28;20174;-65
2023/01/31 08:13:56;;;;;;;8.37;2.70;;;6.70;99.90;;;;;;5019186;28;20190;-65
2023/01/31 08:16:25;;;;;;;8.20;2.53;;;6.80;99.90;;;;;;5016349;28;20194;-65
2023/01/31 08:18:52;;;;;;;7.33;2.60;;;6.80;99.90;;;;;;5008263;28;20179;-64
2023/01/31 08:21:18;;;;;;;7.27;2.50;;;6.80;99.90;;;;;;5004820;28;20221;-66
2023/01/31 08:23:48;;;;;;;7.60;2.40;;;6.90;99.90;;;;;;5011282;28;20194;-65
2023/01/31 08:26:19;;;;;;;7.17;2.43;;;6.90;99.90;;;;;;5011919;28;20194;-65
2023/01/31 08:28:47;;;;;;;10.40;2.43;;;6.80;99.90;;;;;;5009884;28;20212;-65
2023/01/31 08:31:17;;;;;;;5.43;2.30;;;7.00;99.90;;;;;;5010096;28;20241;-66
2023/01/31 08:33:43;;;;;;;7.90;2.20;;;7.00;99.90;;;;;;5010328;28;20253;-65
2023/01/31 08:36:14;;;;;;;6.27;2.13;;;7.00;99.90;;;;;;5012764;28;20238;-65
2023/01/31 08:38:40;;;;;;;8.70;2.40;;;7.00;99.90;;;;;;5019341;28;20175;-66
2023/01/31 08:41:08;;;;;;;4.73;2.20;;;7.10;99.90;;;;;;5001323;28;20182;-65
2023/01/31 08:43:36;;;;;;;4.47;1.83;;;7.10;99.90;;;;;;5010531;28;20222;-65
2023/01/31 08:46:05;;;;;;;4.50;2.10;;;7.10;99.90;;;;;;4998402;28;20278;-66
2023/01/31 08:48:33;;;;;;;4.90;2.03;;;7.20;99.90;;;;;;5013093;28;20198;-64
2023/01/31 08:51:03;;;;;;;3.73;2.07;;;7.20;99.90;;;;;;5010106;28;20198;-66
2023/01/31 08:53:31;;;;;;;9.50;2.23;;;7.20;99.90;;;;;;5033681;28;20185;-65
2023/01/31 08:56:01;;;;;;;4.93;2.20;;;7.30;99.90;;;;;;5024943;28;20179;-64
2023/01/31 08:58:30;;;;;;;5.57;2.10;;;7.30;99.90;;;;;;5006578;28;20214;-65
2023/01/31 09:01:04;;;;;;;5.03;1.90;;;7.30;99.90;;;;;;5010135;28;20181;-65
2023/01/31 09:03:30;;;;;;;6.00;2.33;;;7.40;99.90;;;;;;5017251;28;20243;-67
2023/01/31 09:06:06;;;;;;;3.17;1.60;;;7.40;99.90;;;;;;5011794;28;20187;-65
2023/01/31 09:08:32;;;;;;;7.00;2.20;;;7.40;99.90;;;;;;5006292;28;20356;-65
2023/01/31 09:11:00;;;;;;;6.10;2.00;;;7.40;99.90;;;;;;5004861;28;20214;-65
2023/01/31 09:13:27;;;;;;;8.23;2.47;;;7.50;99.90;;;;;;5007465;28;20179;-65
2023/01/31 09:16:00;;;;;;;6.80;2.17;;;7.50;99.90;;;;;;5010529;28;20179;-64
2023/01/31 09:18:28;;;;;;;8.93;2.27;;;7.60;99.90;;;;;;5006874;28;20215;-65
2023/01/31 09:21:01;;;;;;;4.53;1.70;;;7.60;99.90;;;;;;5010630;28;20207;-67
2023/01/31 09:23:27;;;;;;;8.20;2.37;;;7.60;99.90;;;;;;5018788;28;20185;-67
2023/01/31 09:25:54;;;;;;;7.07;1.93;;;7.60;99.90;;;;;;5009075;28;20253;-67
2023/01/31 09:28:20;;;;;;;6.57;2.23;;;7.70;99.90;;;;;;5007189;28;20276;-67
2023/01/31 09:30:46;;;;;;;8.23;2.10;;;7.70;99.90;;;;;;5009831;28;20198;-65
2023/01/31 09:33:12;;;;;;;6.00;2.10;;;7.80;99.90;;;;;;5006195;28;20175;-66
2023/01/31 09:35:40;;;;;;;7.50;2.23;;;7.70;99.90;;;;;;5007764;28;20452;-67
2023/01/31 09:38:07;;;;;;;5.80;2.13;;;7.80;99.90;;;;;;5011605;28;20209;-66
2023/01/31 09:40:36;;;;;;;7.53;2.00;;;7.90;99.90;;;;;;5009289;28;20167;-66
2023/01/31 09:43:08;;;;;;;6.90;1.83;;;7.90;99.90;;;;;;5018074;28;20187;-68
2023/01/31 09:45:39;;;;;;;9.77;2.50;;;7.90;99.90;;;;;;5000506;28;20203;-67
2023/01/31 09:48:06;;;;;;;7.43;2.37;;;7.90;99.90;;;;;;5017323;28;20187;-67
2023/01/31 09:50:44;;;;;;;7.00;2.60;;;7.90;99.90;;;;;;5005369;28;20239;-68
2023/01/31 09:53:13;;;;;;;5.57;1.93;;;8.00;99.90;;;;;;5008098;28;20194;-65
2023/01/31 09:56:02;;;;;;;7.00;2.00;;;8.00;99.90;;;;;;5009621;28;20186;-65
2023/01/31 09:58:37;;;;;;;7.60;1.90;;;8.00;99.90;;;;;;5002160;28;20262;-63
2023/01/31 10:01:14;;;;;;;6.77;1.83;;;8.00;99.90;;;;;;5005999;28;20270;-66
2023/01/31 10:04:07;;;;;;;6.73;2.07;;;8.10;99.90;;;;;;5019976;28;20179;-66
2023/01/31 10:07:11;;;;;;;4.40;1.77;;;8.10;99.90;;;;;;5004930;28;20206;-66
2023/01/31 10:10:03;;;;;;;7.73;2.10;;;8.20;99.90;;;;;;5004112;28;20206;-67
2023/01/31 10:12:42;;;;;;;5.87;1.80;;;8.20;99.90;;;;;;5016266;28;20234;-67
2023/01/31 10:15:37;;;;;;;7.80;2.07;;;8.20;99.90;;;;;;5000570;28;20178;-67
2023/01/31 10:18:23;;;;;;;8.43;2.30;;;8.30;99.90;;;;;;5007707;28;20459;-67
2023/01/31 10:20:58;;;;;;;5.27;2.20;;;8.30;99.90;;;;;;5002003;28;20465;-67
2023/01/31 10:23:39;;;;;;;8.87;2.40;;;8.30;99.90;;;;;;5018332;28;20256;-62
2023/01/31 10:26:12;;;;;;;5.97;2.30;;;8.30;99.90;;;;;;5022483;28;20210;-67
2023/01/31 10:28:55;;;;;;;8.73;2.00;;;8.40;99.90;;;;;;5002741;28;20199;-65
2023/01/31 10:31:27;;;;;;;8.40;2.23;;;8.40;99.90;;;;;;5013272;28;20220;-65
2023/01/31 10:34:29;;;;;;;6.80;2.10;;;8.50;99.90;;;;;;5008617;28;20206;-63
2023/01/31 10:37:01;;;;;;;6.80;2.00;;;8.50;99.90;;;;;;5006303;28;20175;-67
2023/01/31 10:39:49;;;;;;;7.77;2.07;;;8.60;99.90;;;;;;5004329;28;20182;-66
2023/01/31 10:42:26;;;;;;;7.40;2.10;;;8.60;99.90;;;;;;5029647;28;20297;-67
2023/01/31 10:45:01;;;;;;;6.60;2.07;;;8.60;99.90;;;;;;5017905;28;20167;-60
2023/01/31 10:47:44;;;;;;;9.73;2.20;;;8.60;99.90;;;;;;5011032;28;20219;-66
2023/01/31 10:50:31;;;;;;;6.80;1.97;;;8.70;99.90;;;;;;5016842;28;20199;-67
2023/01/31 10:53:02;;;;;;;9.23;1.90;;;8.70;99.90;;;;;;5027671;28;20229;-65
2023/01/31 10:56:08;;;;;;;7.60;2.23;;;8.80;99.90;;;;;;5017561;28;20178;-66
2023/01/31 10:58:34;;;;;;;7.90;2.20;;;8.80;99.90;;;;;;4998002;28;20186;-67
2023/01/31 11:01:01;;;;;;;8.33;2.23;;;8.90;99.90;;;;;;4998050;28;20199;-62
2023/01/31 11:03:27;;;;;;;9.23;2.30;;;8.90;99.90;;;;;;4997580;28;20283;-66
2023/01/31 11:05:54;;;;;;;7.87;2.20;;;8.90;99.90;;;;;;5006645;28;20317;-67
2023/01/31 11:08:30;;;;;;;10.87;2.60;;;8.90;99.90;;;;;;5014727;28;20203;-66
2023/01/31 11:11:00;;;;;;;6.10;2.20;;;8.90;99.90;;;;;;5008386;28;20189;-66
2023/01/31 11:13:26;;;;;;;6.20;2.10;;;9.00;99.90;;;;;;5002554;28;20195;-63
2023/01/31 11:15:54;;;;;;;4.90;2.03;;;8.90;99.90;;;;;;5013211;28;20201;-66
2023/01/31 11:18:34;;;;;;;4.80;2.03;;;8.90;99.90;;;;;;5008967;28;20183;-65
2023/01/31 11:21:03;;;;;;;4.93;2.03;;;8.90;99.90;;;;;;5010829;28;20229;-67
2023/01/31 11:23:33;;;;;;;5.93;2.40;;;8.90;99.90;;;;;;5020371;28;20179;-67
2023/01/31 11:25:59;;;;;;;9.27;2.30;;;8.90;99.90;;;;;;5005519;28;20178;-67
2023/01/31 11:28:39;;;;;;;7.83;1.90;;;8.90;99.90;;;;;;5015311;28;20281;-67
2023/01/31 11:31:28;;;;;;;8.13;2.47;;;8.80;99.90;;;;;;5005442;28;20184;-64
2023/01/31 11:34:01;;;;;;;6.07;2.10;;;8.80;99.90;;;;;;4999692;28;20187;-67
2023/01/31 11:36:41;;;;;;;8.60;2.50;;;8.90;99.90;;;;;;5010067;28;20186;-67
2023/01/31 11:39:25;;;;;;;10.63;3.00;;;8.90;99.90;;;;;;5013156;28;20174;-67
2023/01/31 11:41:51;;;;;;;10.50;2.40;;;8.90;99.90;;;;;;5013079;28;20206;-66
2023/01/31 11:44:19;;;;;;;9.97;2.70;;;9.00;99.90;;;;;;5010964;28;20269;-65
2023/01/31 11:47:12;;;;;;;10.37;2.70;;;9.00;99.90;;;;;;5019046;28;20223;-66
2023/01/31 11:49:41;;;;;;;7.43;2.30;;;9.00;99.90;;;;;;5006439;28;20207;-65
2023/01/31 11:52:20;;;;;;;5.63;2.00;;;9.10;99.90;;;;;;5010132;28;20206;-67
2023/01/31 11:54:49;;;;;;;4.90;2.17;;;9.10;99.90;;;;;;5003213;28;20179;-68
2023/01/31 11:57:21;;;;;;;7.80;2.47;;;9.10;99.90;;;;;;5011667;28;20257;-67
2023/01/31 11:59:50;;;;;;;7.03;2.07;;;9.10;99.90;;;;;;5007107;28;20266;-66
2023/01/31 12:02:40;;;;;;;6.87;2.37;;;9.10;99.90;;;;;;5017607;28;20207;-67
2023/01/31 12:05:18;;;;;;;7.37;2.07;;;9.20;99.90;;;;;;5021464;28;20175;-65
2023/01/31 12:07:52;;;;;;;6.17;2.30;;;9.20;99.90;;;;;;5008957;28;20270;-61
2023/01/31 12:10:29;;;;;;;7.53;2.10;;;9.20;99.90;;;;;;5003077;28;20202;-65
2023/01/31 12:13:07;;;;;;;6.53;2.20;;;9.20;99.90;;;;;;5007458;28;20171;-64
2023/01/31 12:15:33;;;;;;;10.50;2.17;;;9.30;99.90;;;;;;5009988;28;20225;-67
2023/01/31 12:18:00;;;;;;;7.33;1.77;;;9.30;99.90;;;;;;5009433;28;20180;-68
2023/01/31 12:20:43;;;;;;;6.97;2.03;;;9.40;99.90;;;;;;5009239;28;20240;-67
2023/01/31 12:23:21;;;;;;;6.70;1.93;;;9.50;99.90;;;;;;5010745;28;20344;-67
2023/01/31 12:26:09;;;;;;;6.07;2.10;;;9.50;99.90;;;;;;5005777;28;20284;-68
2023/01/31 12:28:54;;;;;;;5.27;1.90;;;9.50;99.90;;;;;;5021663;28;20207;-67
2023/01/31 12:31:41;;;;;;;8.27;2.10;;;9.60;99.90;;;;;;5022114;28;20178;-66
2023/01/31 12:34:07;;;;;;;6.60;2.50;;;9.60;99.90;;;;;;5008790;28;20179;-66
2023/01/31 12:36:41;;;;;;;6.77;2.30;;;9.60;99.90;;;;;;5008215;28;20176;-66
2023/01/31 12:39:11;;;;;;;6.93;1.97;;;9.70;99.90;;;;;;5008804;28;20206;-64
2023/01/31 12:41:50;;;;;;;4.23;1.90;;;9.60;99.90;;;;;;5023914;28;20286;-68
2023/01/31 12:44:38;;;;;;;5.40;1.75;;;9.70;99.90;;;;;;5009059;28;20237;-68
2023/01/31 12:47:29;;;;;;;4.40;1.57;;;9.70;99.90;;;;;;5013860;28;20215;-67
2023/01/31 12:50:23;;;;;;;4.95;1.48;;;9.70;99.90;;;;;;5018376;28;20202;-67
2023/01/31 12:53:23;;;;;;;5.23;1.50;;;9.70;99.90;;;;;;5026397;28;20167;-67
2023/01/31 12:56:17;;;;;;;6.95;1.90;;;9.70;99.90;;;;;;5010257;28;20178;-67
2023/01/31 12:58:45;;;;;;;3.63;1.80;;;9.70;99.90;;;;;;5002343;28;20193;-68
2023/01/31 13:01:44;;;;;;;5.30;1.60;;;9.70;99.90;;;;;;5020166;28;20230;-66
2023/01/31 13:04:42;;;;;;;6.25;1.85;;;9.70;99.90;;;;;;5007651;28;20237;-67
2023/01/31 13:07:25;;;;;;;4.27;1.50;;;9.60;99.90;;;;;;5009598;28;20198;-66
2023/01/31 13:09:53;;;;;;;2.43;1.20;;;9.70;99.90;;;;;;5008292;28;20217;-68
2023/01/31 13:12:24;;;;;;;3.57;1.40;;;9.60;99.90;;;;;;5006510;28;20183;-66
2023/01/31 13:15:02;;;;;;;4.55;1.27;;;9.70;99.90;;;;;;5005130;28;20175;-67
2023/01/31 13:17:32;;;;;;;4.57;1.37;;;9.60;99.90;;;;;;5020775;28;20202;-66
2023/01/31 13:20:20;;;;;;;3.47;1.15;;;9.70;99.90;;;;;;5008329;28;20239;-67
2023/01/31 13:22:52;;;;;;;3.33;1.15;;;9.60;99.90;;;;;;5016841;28;20186;-65
2023/01/31 13:25:31;;;;;;;3.83;1.20;;;9.60;99.90;;;;;;5009749;28;20203;-68
2023/01/31 13:28:08;;;;;;;2.83;1.20;;;9.70;99.90;;;;;;5008791;28;20190;-65
2023/01/31 13:30:41;;;;;;;3.83;1.10;;;9.70;99.90;;;;;;5001708;28;20253;-66
2023/01/31 13:33:22;;;;;;;1.77;0.90;;;9.70;99.90;;;;;;5014576;28;20206;-66